West Pawlet, VT

11:26 AM EST on January 25, 2015 (GMT -0500)
Rush Hollow | Change Station
CLOSE
Current Station
Personal Weather Station
Location: West Pawlet, VT
Elevation: 730 ft
Nearby Weather Stations
Active Advisory: Winter Storm Watch

Elev 730 ft 43.34 °N, 73.23 °W | Updated 6 minutes ago

Partly Cloudy
Partly Cloudy
24.2 °F
Feels Like 17 °F
N
6.0
Wind Variable Wind from West
Gusts 6.0 mph

Today
High -- | Low -- °F
--% Chance of Precip.
Yesterday
High -- | Low -- °F
Precip. -- in
7:15 AM 4:55 PM
Waxing Crescent, 33% visible
Pressure 29.77 in
Visibility 10.0 miles
Clouds Clear
Windchill 17 °F
Dew Point 7 °F
Humidity 47%
Rainfall 0.00 in
Snow Depth Not available.
UV 2 out of 12
Pollen .10 out of 12
Air Quality Not available.
Flu Activity Not available.
METAR KGFL 251553Z AUTO 01011KT 10SM CLR M03/M14 A2974 RMK AO2 SLP079 T10331139

More Conditions Fewer Conditions

Pressure 29.77 in
Visibility 10.0 miles
Clouds Clear
Windchill 17 °F
Dew Point 7 °F
Humidity 47%
Rainfall 0.00 in
Snow Depth Not available.
UV 2 out of 12
Pollen .10 out of 12
Air Quality Not available.
Flu Activity Not available.
METAR KGFL 251553Z AUTO 01011KT 10SM CLR M03/M14 A2974 RMK AO2 SLP079 T10331139

More Conditions Fewer Conditions

10-Day Weather Forecast

Almanac

Astronomy

Jan. 25, 2015 Rise Set
Actual Time
Civil Twilight
Nautical Twilight
Astronomical Twilight
Moon
Length of Visible Light
Length of Day
Tomorrow will be .
, % of the Moon is Illuminated

Today's Extremes

State Highs State Lows

Community

WunderPhotos

Upload Photos

1,789,952 photos uploaded!

WunderBlogs® & News

Nearby

Air Quality

  Air Quality AQ Index Pollutant
Not available.

Snow Depth

Station Depth Elevation

Earthquake Activity

City Distance Mag. Time & Date
Minimum magnitude displayed is 2.5.

Coastal Water Temperatures

Place Temperature

Nearby Weather Stations